sensor_id;sensor_type;location;lat;lon;timestamp;temperature;humidity
4739;DHT22;2383;48.632;10.156;2023-08-17T00:00:51;20.50;99.90
4739;DHT22;2383;48.632;10.156;2023-08-17T00:04:53;20.20;99.90
4739;DHT22;2383;48.632;10.156;2023-08-17T00:08:56;20.00;99.90
4739;DHT22;2383;48.632;10.156;2023-08-17T00:12:58;20.00;99.90
4739;DHT22;2383;48.632;10.156;2023-08-17T00:17:00;20.10;99.90
4739;DHT22;2383;48.632;10.156;2023-08-17T00:21:02;19.80;99.90
4739;DHT22;2383;48.632;10.156;2023-08-17T00:25:05;19.70;99.90
4739;DHT22;2383;48.632;10.156;2023-08-17T00:29:08;19.60;99.90
4739;DHT22;2383;48.632;10.156;2023-08-17T00:33:10;18.80;99.90
4739;DHT22;2383;48.632;10.156;2023-08-17T00:37:12;18.50;99.90
4739;DHT22;2383;48.632;10.156;2023-08-17T00:41:14;19.00;99.90
4739;DHT22;2383;48.632;10.156;2023-08-17T00:45:17;18.40;99.90
4739;DHT22;2383;48.632;10.156;2023-08-17T00:49:19;17.40;99.90
4739;DHT22;2383;48.632;10.156;2023-08-17T00:53:22;17.90;99.90
4739;DHT22;2383;48.632;10.156;2023-08-17T00:57:26;18.70;99.90
4739;DHT22;2383;48.632;10.156;2023-08-17T01:01:29;19.00;99.90
4739;DHT22;2383;48.632;10.156;2023-08-17T01:05:33;19.50;99.90
4739;DHT22;2383;48.632;10.156;2023-08-17T01:09:36;19.70;99.90
4739;DHT22;2383;48.632;10.156;2023-08-17T01:18:26;19.30;99.90
4739;DHT22;2383;48.632;10.156;2023-08-17T01:22:30;19.40;99.90
4739;DHT22;2383;48.632;10.156;2023-08-17T01:26:35;19.50;99.90
4739;DHT22;2383;48.632;10.156;2023-08-17T01:30:58;19.60;99.90
4739;DHT22;2383;48.632;10.156;2023-08-17T01:39:37;19.70;99.90
4739;DHT22;2383;48.632;10.156;2023-08-17T01:43:42;19.70;99.90
4739;DHT22;2383;48.632;10.156;2023-08-17T01:47:49;19.70;99.90
4739;DHT22;2383;48.632;10.156;2023-08-17T01:51:51;19.70;99.90
4739;DHT22;2383;48.632;10.156;2023-08-17T01:55:53;19.80;99.90
4739;DHT22;2383;48.632;10.156;2023-08-17T01:59:55;19.80;99.90
4739;DHT22;2383;48.632;10.156;2023-08-17T02:03:57;19.20;99.90
4739;DHT22;2383;48.632;10.156;2023-08-17T02:08:01;19.10;99.90
4739;DHT22;2383;48.632;10.156;2023-08-17T02:12:04;19.20;99.90
4739;DHT22;2383;48.632;10.156;2023-08-17T02:16:06;19.20;99.90
4739;DHT22;2383;48.632;10.156;2023-08-17T02:20:09;18.90;99.90
4739;DHT22;2383;48.632;10.156;2023-08-17T02:24:12;18.50;99.90
4739;DHT22;2383;48.632;10.156;2023-08-17T02:28:14;18.40;99.90
4739;DHT22;2383;48.632;10.156;2023-08-17T02:32:15;18.40;99.90
4739;DHT22;2383;48.632;10.156;2023-08-17T02:36:18;18.10;99.90
4739;DHT22;2383;48.632;10.156;2023-08-17T02:40:20;18.00;99.90
4739;DHT22;2383;48.632;10.156;2023-08-17T02:44:22;18.40;99.90
4739;DHT22;2383;48.632;10.156;2023-08-17T02:48:24;18.40;99.90
4739;DHT22;2383;48.632;10.156;2023-08-17T02:52:26;18.00;99.90
4739;DHT22;2383;48.632;10.156;2023-08-17T02:56:28;18.30;99.90
4739;DHT22;2383;48.632;10.156;2023-08-17T03:00:30;18.60;99.90
4739;DHT22;2383;48.632;10.156;2023-08-17T03:04:32;18.60;99.90
4739;DHT22;2383;48.632;10.156;2023-08-17T03:08:35;18.20;99.90
4739;DHT22;2383;48.632;10.156;2023-08-17T03:12:38;17.80;99.90
4739;DHT22;2383;48.632;10.156;2023-08-17T03:16:40;17.70;99.90
4739;DHT22;2383;48.632;10.156;2023-08-17T03:20:44;18.00;99.90
4739;DHT22;2383;48.632;10.156;2023-08-17T03:24:47;17.30;99.90
4739;DHT22;2383;48.632;10.156;2023-08-17T03:28:50;17.00;99.90
4739;DHT22;2383;48.632;10.156;2023-08-17T03:32:53;16.30;99.90
4739;DHT22;2383;48.632;10.156;2023-08-17T03:36:55;16.80;99.90
4739;DHT22;2383;48.632;10.156;2023-08-17T03:40:57;16.90;99.90
4739;DHT22;2383;48.632;10.156;2023-08-17T03:45:00;17.30;99.90
4739;DHT22;2383;48.632;10.156;2023-08-17T03:49:02;17.60;99.90
4739;DHT22;2383;48.632;10.156;2023-08-17T03:53:04;17.80;99.90
4739;DHT22;2383;48.632;10.156;2023-08-17T03:57:06;17.70;99.90
4739;DHT22;2383;48.632;10.156;2023-08-17T04:01:09;18.00;99.90
4739;DHT22;2383;48.632;10.156;2023-08-17T04:05:15;18.20;99.90
4739;DHT22;2383;48.632;10.156;2023-08-17T04:09:17;18.40;99.90
4739;DHT22;2383;48.632;10.156;2023-08-17T04:13:20;18.50;99.90
4739;DHT22;2383;48.632;10.156;2023-08-17T04:17:22;18.70;99.90
4739;DHT22;2383;48.632;10.156;2023-08-17T04:21:24;18.70;99.90
4739;DHT22;2383;48.632;10.156;2023-08-17T04:25:26;18.60;99.90
4739;DHT22;2383;48.632;10.156;2023-08-17T04:29:30;18.50;99.90
4739;DHT22;2383;48.632;10.156;2023-08-17T04:33:33;18.50;99.90
4739;DHT22;2383;48.632;10.156;2023-08-17T04:37:35;18.40;99.90
4739;DHT22;2383;48.632;10.156;2023-08-17T04:41:37;18.50;99.90
4739;DHT22;2383;48.632;10.156;2023-08-17T04:45:42;18.40;99.90
4739;DHT22;2383;48.632;10.156;2023-08-17T04:49:45;18.50;99.90
4739;DHT22;2383;48.632;10.156;2023-08-17T04:53:47;18.50;99.90
4739;DHT22;2383;48.632;10.156;2023-08-17T04:57:49;18.50;99.90
4739;DHT22;2383;48.632;10.156;2023-08-17T05:01:51;18.50;99.90
4739;DHT22;2383;48.632;10.156;2023-08-17T05:05:53;18.50;99.90
4739;DHT22;2383;48.632;10.156;2023-08-17T05:09:56;18.40;99.90
4739;DHT22;2383;48.632;10.156;2023-08-17T05:13:58;18.50;99.90
4739;DHT22;2383;48.632;10.156;2023-08-17T05:18:00;18.30;99.90
4739;DHT22;2383;48.632;10.156;2023-08-17T05:22:03;18.40;99.90
4739;DHT22;2383;48.632;10.156;2023-08-17T05:26:05;18.20;99.90
4739;DHT22;2383;48.632;10.156;2023-08-17T05:30:08;18.20;99.90
4739;DHT22;2383;48.632;10.156;2023-08-17T05:34:10;18.30;99.90
4739;DHT22;2383;48.632;10.156;2023-08-17T05:38:13;18.40;99.90
4739;DHT22;2383;48.632;10.156;2023-08-17T05:42:15;18.20;99.90
4739;DHT22;2383;48.632;10.156;2023-08-17T05:46:18;18.30;99.90
4739;DHT22;2383;48.632;10.156;2023-08-17T05:50:21;18.40;99.90
4739;DHT22;2383;48.632;10.156;2023-08-17T05:54:23;18.00;99.90
4739;DHT22;2383;48.632;10.156;2023-08-17T05:58:25;18.00;99.90
4739;DHT22;2383;48.632;10.156;2023-08-17T06:02:27;18.20;99.90
4739;DHT22;2383;48.632;10.156;2023-08-17T06:06:29;18.20;99.90
4739;DHT22;2383;48.632;10.156;2023-08-17T06:10:31;18.60;99.90
4739;DHT22;2383;48.632;10.156;2023-08-17T06:14:33;19.00;99.90
4739;DHT22;2383;48.632;10.156;2023-08-17T06:18:36;19.10;99.90
4739;DHT22;2383;48.632;10.156;2023-08-17T06:22:38;19.30;99.90
4739;DHT22;2383;48.632;10.156;2023-08-17T06:26:40;19.20;99.90
4739;DHT22;2383;48.632;10.156;2023-08-17T06:30:43;19.20;99.90
4739;DHT22;2383;48.632;10.156;2023-08-17T06:34:45;19.30;99.90
4739;DHT22;2383;48.632;10.156;2023-08-17T06:38:47;19.60;99.90
4739;DHT22;2383;48.632;10.156;2023-08-17T06:42:49;19.90;99.90
4739;DHT22;2383;48.632;10.156;2023-08-17T06:46:51;20.10;99.90
4739;DHT22;2383;48.632;10.156;2023-08-17T06:50:53;19.80;99.90
4739;DHT22;2383;48.632;10.156;2023-08-17T06:54:56;20.00;99.90
4739;DHT22;2383;48.632;10.156;2023-08-17T06:58:57;20.20;99.90
4739;DHT22;2383;48.632;10.156;2023-08-17T07:02:59;20.40;99.90
4739;DHT22;2383;48.632;10.156;2023-08-17T07:07:02;20.50;99.90
4739;DHT22;2383;48.632;10.156;2023-08-17T07:11:04;20.40;99.90
4739;DHT22;2383;48.632;10.156;2023-08-17T07:15:07;20.60;99.90
4739;DHT22;2383;48.632;10.156;2023-08-17T07:19:10;20.90;99.90
4739;DHT22;2383;48.632;10.156;2023-08-17T07:23:13;20.90;99.90
4739;DHT22;2383;48.632;10.156;2023-08-17T07:27:15;21.00;99.90
4739;DHT22;2383;48.632;10.156;2023-08-17T07:31:17;21.30;99.90
4739;DHT22;2383;48.632;10.156;2023-08-17T07:35:19;20.90;99.90
4739;DHT22;2383;48.632;10.156;2023-08-17T07:39:22;21.10;99.90
4739;DHT22;2383;48.632;10.156;2023-08-17T07:43:24;21.20;99.90
4739;DHT22;2383;48.632;10.156;2023-08-17T07:47:26;20.80;99.90
4739;DHT22;2383;48.632;10.156;2023-08-17T07:51:29;21.40;99.90
4739;DHT22;2383;48.632;10.156;2023-08-17T07:55:33;21.80;99.90
4739;DHT22;2383;48.632;10.156;2023-08-17T07:59:35;21.40;99.90
4739;DHT22;2383;48.632;10.156;2023-08-17T08:03:36;21.50;99.90
4739;DHT22;2383;48.632;10.156;2023-08-17T08:07:39;21.90;99.90
4739;DHT22;2383;48.632;10.156;2023-08-17T08:11:41;21.90;99.90
4739;DHT22;2383;48.632;10.156;2023-08-17T08:15:44;22.20;99.90
4739;DHT22;2383;48.632;10.156;2023-08-17T08:19:46;22.20;99.90
4739;DHT22;2383;48.632;10.156;2023-08-17T08:23:48;22.40;99.90
4739;DHT22;2383;48.632;10.156;2023-08-17T08:27:50;21.50;99.90
4739;DHT22;2383;48.632;10.156;2023-08-17T08:31:53;21.70;99.90
4739;DHT22;2383;48.632;10.156;2023-08-17T08:35:56;22.10;99.90
4739;DHT22;2383;48.632;10.156;2023-08-17T08:39:58;22.20;99.90
4739;DHT22;2383;48.632;10.156;2023-08-17T08:44:00;22.50;99.90
4739;DHT22;2383;48.632;10.156;2023-08-17T08:48:02;22.60;99.90
4739;DHT22;2383;48.632;10.156;2023-08-17T08:52:07;21.90;99.90
4739;DHT22;2383;48.632;10.156;2023-08-17T08:56:15;22.20;99.90
4739;DHT22;2383;48.632;10.156;2023-08-17T09:00:21;22.50;99.90
4739;DHT22;2383;48.632;10.156;2023-08-17T09:04:24;22.80;99.90
4739;DHT22;2383;48.632;10.156;2023-08-17T09:08:30;23.10;99.90
4739;DHT22;2383;48.632;10.156;2023-08-17T09:12:33;23.20;99.90
4739;DHT22;2383;48.632;10.156;2023-08-17T09:16:41;23.40;99.90
4739;DHT22;2383;48.632;10.156;2023-08-17T09:20:45;23.50;99.90
4739;DHT22;2383;48.632;10.156;2023-08-17T09:24:49;23.70;99.90
4739;DHT22;2383;48.632;10.156;2023-08-17T09:28:52;23.80;99.90
4739;DHT22;2383;48.632;10.156;2023-08-17T09:33:02;23.50;99.90
4739;DHT22;2383;48.632;10.156;2023-08-17T09:37:04;23.70;99.90
4739;DHT22;2383;48.632;10.156;2023-08-17T09:41:07;23.80;99.90
4739;DHT22;2383;48.632;10.156;2023-08-17T09:45:09;24.10;99.90
4739;DHT22;2383;48.632;10.156;2023-08-17T09:49:11;24.10;99.90
4739;DHT22;2383;48.632;10.156;2023-08-17T09:53:15;24.10;99.90
4739;DHT22;2383;48.632;10.156;2023-08-17T09:57:17;24.20;99.90
4739;DHT22;2383;48.632;10.156;2023-08-17T10:01:23;24.20;99.90
4739;DHT22;2383;48.632;10.156;2023-08-17T10:05:28;24.50;99.90
4739;DHT22;2383;48.632;10.156;2023-08-17T10:09:38;24.50;99.90
4739;DHT22;2383;48.632;10.156;2023-08-17T10:14:00;24.60;99.90
4739;DHT22;2383;48.632;10.156;2023-08-17T10:18:24;24.70;99.90
4739;DHT22;2383;48.632;10.156;2023-08-17T10:26:40;24.80;99.90
4739;DHT22;2383;48.632;10.156;2023-08-17T10:30:43;24.90;99.90
4739;DHT22;2383;48.632;10.156;2023-08-17T10:34:45;24.40;99.90
4739;DHT22;2383;48.632;10.156;2023-08-17T10:38:47;23.00;99.90
4739;DHT22;2383;48.632;10.156;2023-08-17T10:42:54;23.20;99.90
4739;DHT22;2383;48.632;10.156;2023-08-17T10:46:57;23.70;99.90
4739;DHT22;2383;48.632;10.156;2023-08-17T10:51:23;24.50;99.90
4739;DHT22;2383;48.632;10.156;2023-08-17T10:59:43;25.20;99.90
4739;DHT22;2383;48.632;10.156;2023-08-17T11:03:45;25.10;99.90
4739;DHT22;2383;48.632;10.156;2023-08-17T11:07:47;25.10;99.90
4739;DHT22;2383;48.632;10.156;2023-08-17T11:11:53;25.30;99.90
4739;DHT22;2383;48.632;10.156;2023-08-17T11:15:58;25.60;99.90
4739;DHT22;2383;48.632;10.156;2023-08-17T11:20:05;25.70;99.90
4739;DHT22;2383;48.632;10.156;2023-08-17T11:24:10;25.60;99.90
4739;DHT22;2383;48.632;10.156;2023-08-17T11:28:13;25.40;99.90
4739;DHT22;2383;48.632;10.156;2023-08-17T11:32:18;25.60;99.90
4739;DHT22;2383;48.632;10.156;2023-08-17T11:36:20;24.80;99.90
4739;DHT22;2383;48.632;10.156;2023-08-17T11:40:25;25.50;99.90
4739;DHT22;2383;48.632;10.156;2023-08-17T11:44:28;24.50;99.90
4739;DHT22;2383;48.632;10.156;2023-08-17T11:48:30;25.30;99.60
4739;DHT22;2383;48.632;10.156;2023-08-17T11:52:37;25.60;98.60
4739;DHT22;2383;48.632;10.156;2023-08-17T11:56:40;25.90;99.30
4739;DHT22;2383;48.632;10.156;2023-08-17T12:00:44;26.10;99.50
4739;DHT22;2383;48.632;10.156;2023-08-17T12:04:46;26.40;99.10
4739;DHT22;2383;48.632;10.156;2023-08-17T12:08:50;26.40;98.50
4739;DHT22;2383;48.632;10.156;2023-08-17T12:12:52;26.10;98.20
4739;DHT22;2383;48.632;10.156;2023-08-17T12:16:55;26.00;98.00
4739;DHT22;2383;48.632;10.156;2023-08-17T12:20:57;26.30;97.70
4739;DHT22;2383;48.632;10.156;2023-08-17T12:24:59;26.50;97.60
4739;DHT22;2383;48.632;10.156;2023-08-17T12:29:04;26.60;97.40
4739;DHT22;2383;48.632;10.156;2023-08-17T12:33:07;26.60;97.90
4739;DHT22;2383;48.632;10.156;2023-08-17T12:37:10;26.70;96.80
4739;DHT22;2383;48.632;10.156;2023-08-17T12:41:12;26.70;97.30
4739;DHT22;2383;48.632;10.156;2023-08-17T12:45:14;27.00;96.20
4739;DHT22;2383;48.632;10.156;2023-08-17T12:49:17;26.90;96.90
4739;DHT22;2383;48.632;10.156;2023-08-17T12:53:19;26.90;96.40
4739;DHT22;2383;48.632;10.156;2023-08-17T12:57:21;27.20;95.60
4739;DHT22;2383;48.632;10.156;2023-08-17T13:01:23;26.80;95.60
4739;DHT22;2383;48.632;10.156;2023-08-17T13:05:25;27.10;96.40
4739;DHT22;2383;48.632;10.156;2023-08-17T13:09:27;27.30;96.10
4739;DHT22;2383;48.632;10.156;2023-08-17T13:13:29;27.50;96.10
4739;DHT22;2383;48.632;10.156;2023-08-17T13:17:31;27.50;94.40
4739;DHT22;2383;48.632;10.156;2023-08-17T13:21:34;27.40;95.80
4739;DHT22;2383;48.632;10.156;2023-08-17T13:25:36;27.20;95.60
4739;DHT22;2383;48.632;10.156;2023-08-17T13:29:38;27.10;95.70
4739;DHT22;2383;48.632;10.156;2023-08-17T13:33:41;26.90;95.00
4739;DHT22;2383;48.632;10.156;2023-08-17T13:37:43;27.10;94.90
4739;DHT22;2383;48.632;10.156;2023-08-17T13:41:46;27.10;94.50
4739;DHT22;2383;48.632;10.156;2023-08-17T13:45:48;27.00;94.40
4739;DHT22;2383;48.632;10.156;2023-08-17T13:49:50;26.10;94.10
4739;DHT22;2383;48.632;10.156;2023-08-17T13:53:52;24.60;97.30
4739;DHT22;2383;48.632;10.156;2023-08-17T13:57:55;23.10;99.90
4739;DHT22;2383;48.632;10.156;2023-08-17T14:01:57;22.30;99.90
4739;DHT22;2383;48.632;10.156;2023-08-17T14:05:59;20.50;99.90
4739;DHT22;2383;48.632;10.156;2023-08-17T14:10:01;16.30;99.90
4739;DHT22;2383;48.632;10.156;2023-08-17T14:14:11;14.60;99.90
4739;DHT22;2383;48.632;10.156;2023-08-17T14:18:13;13.90;99.90
4739;DHT22;2383;48.632;10.156;2023-08-17T14:22:15;12.40;99.90
4739;DHT22;2383;48.632;10.156;2023-08-17T14:26:17;12.20;99.90
4739;DHT22;2383;48.632;10.156;2023-08-17T14:30:19;13.00;99.90
4739;DHT22;2383;48.632;10.156;2023-08-17T14:34:21;14.60;99.90
4739;DHT22;2383;48.632;10.156;2023-08-17T14:38:23;15.50;99.90
4739;DHT22;2383;48.632;10.156;2023-08-17T14:42:32;16.10;99.90
4739;DHT22;2383;48.632;10.156;2023-08-17T14:46:34;16.30;99.90
4739;DHT22;2383;48.632;10.156;2023-08-17T14:50:37;16.40;99.90
4739;DHT22;2383;48.632;10.156;2023-08-17T14:54:40;16.60;99.90
4739;DHT22;2383;48.632;10.156;2023-08-17T14:58:44;16.80;99.90
4739;DHT22;2383;48.632;10.156;2023-08-17T15:02:46;17.20;99.90
4739;DHT22;2383;48.632;10.156;2023-08-17T15:06:48;17.50;99.90
4739;DHT22;2383;48.632;10.156;2023-08-17T15:10:51;17.90;99.90
4739;DHT22;2383;48.632;10.156;2023-08-17T15:14:53;18.10;99.90
4739;DHT22;2383;48.632;10.156;2023-08-17T15:18:55;18.20;99.90
4739;DHT22;2383;48.632;10.156;2023-08-17T15:22:57;18.30;99.90
4739;DHT22;2383;48.632;10.156;2023-08-17T15:26:59;18.50;99.90
4739;DHT22;2383;48.632;10.156;2023-08-17T15:31:03;18.80;99.90
4739;DHT22;2383;48.632;10.156;2023-08-17T15:35:09;18.70;99.90
4739;DHT22;2383;48.632;10.156;2023-08-17T15:39:11;18.80;99.90
4739;DHT22;2383;48.632;10.156;2023-08-17T15:43:13;19.00;99.90
4739;DHT22;2383;48.632;10.156;2023-08-17T15:47:16;19.20;99.90
4739;DHT22;2383;48.632;10.156;2023-08-17T15:51:18;19.10;99.90
4739;DHT22;2383;48.632;10.156;2023-08-17T15:55:20;19.10;99.90
4739;DHT22;2383;48.632;10.156;2023-08-17T15:59:22;19.10;99.90
4739;DHT22;2383;48.632;10.156;2023-08-17T16:03:24;19.20;99.90
4739;DHT22;2383;48.632;10.156;2023-08-17T16:07:26;19.50;99.90
4739;DHT22;2383;48.632;10.156;2023-08-17T16:11:29;19.60;99.90
4739;DHT22;2383;48.632;10.156;2023-08-17T16:15:31;19.60;99.90
4739;DHT22;2383;48.632;10.156;2023-08-17T16:19:33;19.50;99.90
4739;DHT22;2383;48.632;10.156;2023-08-17T16:23:35;19.60;99.90
4739;DHT22;2383;48.632;10.156;2023-08-17T16:27:37;19.40;99.90
4739;DHT22;2383;48.632;10.156;2023-08-17T16:31:39;19.40;99.90
4739;DHT22;2383;48.632;10.156;2023-08-17T16:35:43;19.40;99.90
4739;DHT22;2383;48.632;10.156;2023-08-17T16:39:45;19.50;99.90
4739;DHT22;2383;48.632;10.156;2023-08-17T16:43:48;19.20;99.90
4739;DHT22;2383;48.632;10.156;2023-08-17T16:47:50;19.10;99.90
4739;DHT22;2383;48.632;10.156;2023-08-17T16:51:53;19.30;99.90
4739;DHT22;2383;48.632;10.156;2023-08-17T16:55:55;19.50;99.90
4739;DHT22;2383;48.632;10.156;2023-08-17T16:59:57;19.50;99.90
4739;DHT22;2383;48.632;10.156;2023-08-17T17:04:05;19.60;99.90
4739;DHT22;2383;48.632;10.156;2023-08-17T17:08:08;19.40;99.90
4739;DHT22;2383;48.632;10.156;2023-08-17T17:12:10;19.30;99.90
4739;DHT22;2383;48.632;10.156;2023-08-17T17:16:12;19.30;99.90
4739;DHT22;2383;48.632;10.156;2023-08-17T17:20:14;19.50;99.90
4739;DHT22;2383;48.632;10.156;2023-08-17T17:24:16;19.70;99.90
4739;DHT22;2383;48.632;10.156;2023-08-17T17:28:24;19.80;99.90
4739;DHT22;2383;48.632;10.156;2023-08-17T17:32:26;19.90;99.90
4739;DHT22;2383;48.632;10.156;2023-08-17T17:36:29;19.90;99.90
4739;DHT22;2383;48.632;10.156;2023-08-17T17:40:32;19.90;99.90
4739;DHT22;2383;48.632;10.156;2023-08-17T17:44:34;19.90;99.90
4739;DHT22;2383;48.632;10.156;2023-08-17T17:48:36;20.00;99.90
4739;DHT22;2383;48.632;10.156;2023-08-17T17:52:38;19.90;99.90
4739;DHT22;2383;48.632;10.156;2023-08-17T17:56:42;19.90;99.90
4739;DHT22;2383;48.632;10.156;2023-08-17T18:00:46;19.80;99.90
4739;DHT22;2383;48.632;10.156;2023-08-17T18:04:48;19.70;99.90
4739;DHT22;2383;48.632;10.156;2023-08-17T18:08:50;19.60;99.90
4739;DHT22;2383;48.632;10.156;2023-08-17T18:12:52;19.50;99.90
4739;DHT22;2383;48.632;10.156;2023-08-17T18:16:54;19.50;99.90
4739;DHT22;2383;48.632;10.156;2023-08-17T18:20:56;19.30;99.90
4739;DHT22;2383;48.632;10.156;2023-08-17T18:24:58;18.80;99.90
4739;DHT22;2383;48.632;10.156;2023-08-17T18:29:01;18.40;99.90
4739;DHT22;2383;48.632;10.156;2023-08-17T18:33:05;18.40;99.90
4739;DHT22;2383;48.632;10.156;2023-08-17T18:37:07;18.40;99.90
4739;DHT22;2383;48.632;10.156;2023-08-17T18:41:09;18.10;99.90
4739;DHT22;2383;48.632;10.156;2023-08-17T18:45:12;18.30;99.90
4739;DHT22;2383;48.632;10.156;2023-08-17T18:49:16;18.30;99.90
4739;DHT22;2383;48.632;10.156;2023-08-17T18:53:18;18.50;99.90
4739;DHT22;2383;48.632;10.156;2023-08-17T18:57:20;18.20;99.90
4739;DHT22;2383;48.632;10.156;2023-08-17T19:01:22;18.20;99.90
4739;DHT22;2383;48.632;10.156;2023-08-17T19:05:24;18.40;99.90
4739;DHT22;2383;48.632;10.156;2023-08-17T19:09:26;18.30;99.90
4739;DHT22;2383;48.632;10.156;2023-08-17T19:13:29;18.20;99.90
4739;DHT22;2383;48.632;10.156;2023-08-17T19:17:31;18.20;99.90
4739;DHT22;2383;48.632;10.156;2023-08-17T19:21:34;18.00;99.90
4739;DHT22;2383;48.632;10.156;2023-08-17T19:25:36;18.10;99.90
4739;DHT22;2383;48.632;10.156;2023-08-17T19:29:38;18.30;99.90
4739;DHT22;2383;48.632;10.156;2023-08-17T19:33:39;18.50;99.90
4739;DHT22;2383;48.632;10.156;2023-08-17T19:37:42;18.60;99.90
4739;DHT22;2383;48.632;10.156;2023-08-17T19:41:44;18.60;99.90
4739;DHT22;2383;48.632;10.156;2023-08-17T19:45:48;18.60;99.90
4739;DHT22;2383;48.632;10.156;2023-08-17T19:49:51;18.60;99.90
4739;DHT22;2383;48.632;10.156;2023-08-17T19:53:53;18.50;99.90
4739;DHT22;2383;48.632;10.156;2023-08-17T19:57:55;18.50;99.90
4739;DHT22;2383;48.632;10.156;2023-08-17T20:01:57;18.60;99.90
4739;DHT22;2383;48.632;10.156;2023-08-17T20:05:59;18.60;99.90
4739;DHT22;2383;48.632;10.156;2023-08-17T20:10:01;18.60;99.90
4739;DHT22;2383;48.632;10.156;2023-08-17T20:14:03;18.40;99.90
4739;DHT22;2383;48.632;10.156;2023-08-17T20:18:06;18.40;99.90
4739;DHT22;2383;48.632;10.156;2023-08-17T20:22:08;18.30;99.90
4739;DHT22;2383;48.632;10.156;2023-08-17T20:26:10;18.40;99.90
4739;DHT22;2383;48.632;10.156;2023-08-17T20:30:13;18.30;99.90
4739;DHT22;2383;48.632;10.156;2023-08-17T20:34:15;18.30;99.90
4739;DHT22;2383;48.632;10.156;2023-08-17T20:38:17;18.40;99.90
4739;DHT22;2383;48.632;10.156;2023-08-17T20:42:20;18.30;99.90
4739;DHT22;2383;48.632;10.156;2023-08-17T20:46:22;18.30;99.90
4739;DHT22;2383;48.632;10.156;2023-08-17T20:50:24;18.20;99.90
4739;DHT22;2383;48.632;10.156;2023-08-17T20:54:26;18.20;99.90
4739;DHT22;2383;48.632;10.156;2023-08-17T20:58:28;18.10;99.90
4739;DHT22;2383;48.632;10.156;2023-08-17T21:02:31;18.10;99.90
4739;DHT22;2383;48.632;10.156;2023-08-17T21:06:34;18.00;99.90
4739;DHT22;2383;48.632;10.156;2023-08-17T21:10:39;18.10;99.90
4739;DHT22;2383;48.632;10.156;2023-08-17T21:14:41;18.10;99.90
4739;DHT22;2383;48.632;10.156;2023-08-17T21:18:46;17.80;99.90
4739;DHT22;2383;48.632;10.156;2023-08-17T21:22:48;17.80;99.90
4739;DHT22;2383;48.632;10.156;2023-08-17T21:26:53;17.80;99.90
4739;DHT22;2383;48.632;10.156;2023-08-17T21:31:02;17.80;99.90
4739;DHT22;2383;48.632;10.156;2023-08-17T21:35:05;17.90;99.90
4739;DHT22;2383;48.632;10.156;2023-08-17T21:39:07;17.60;99.90
4739;DHT22;2383;48.632;10.156;2023-08-17T21:43:09;17.40;99.90
4739;DHT22;2383;48.632;10.156;2023-08-17T21:47:12;17.30;99.90
4739;DHT22;2383;48.632;10.156;2023-08-17T21:51:13;17.30;99.90
4739;DHT22;2383;48.632;10.156;2023-08-17T21:55:16;17.20;99.90
4739;DHT22;2383;48.632;10.156;2023-08-17T21:59:17;17.20;99.90
4739;DHT22;2383;48.632;10.156;2023-08-17T22:03:20;17.40;99.90
4739;DHT22;2383;48.632;10.156;2023-08-17T22:07:22;17.40;99.90
4739;DHT22;2383;48.632;10.156;2023-08-17T22:11:24;17.30;99.90
4739;DHT22;2383;48.632;10.156;2023-08-17T22:15:26;17.30;99.90
4739;DHT22;2383;48.632;10.156;2023-08-17T22:19:28;17.10;99.90
4739;DHT22;2383;48.632;10.156;2023-08-17T22:23:31;17.20;99.90
4739;DHT22;2383;48.632;10.156;2023-08-17T22:27:33;16.80;99.90
4739;DHT22;2383;48.632;10.156;2023-08-17T22:31:35;16.70;99.90
4739;DHT22;2383;48.632;10.156;2023-08-17T22:35:37;16.90;99.90
4739;DHT22;2383;48.632;10.156;2023-08-17T22:39:40;16.90;99.90
4739;DHT22;2383;48.632;10.156;2023-08-17T22:43:42;16.90;99.90
4739;DHT22;2383;48.632;10.156;2023-08-17T22:47:45;16.90;99.90
4739;DHT22;2383;48.632;10.156;2023-08-17T22:51:47;17.00;99.90
4739;DHT22;2383;48.632;10.156;2023-08-17T22:55:49;17.00;99.90
4739;DHT22;2383;48.632;10.156;2023-08-17T22:59:51;16.90;99.90
4739;DHT22;2383;48.632;10.156;2023-08-17T23:03:53;16.50;99.90
4739;DHT22;2383;48.632;10.156;2023-08-17T23:07:55;16.40;99.90
4739;DHT22;2383;48.632;10.156;2023-08-17T23:11:57;16.60;99.90
4739;DHT22;2383;48.632;10.156;2023-08-17T23:15:59;16.60;99.90
4739;DHT22;2383;48.632;10.156;2023-08-17T23:20:01;16.70;99.90
4739;DHT22;2383;48.632;10.156;2023-08-17T23:24:03;16.40;99.90
4739;DHT22;2383;48.632;10.156;2023-08-17T23:28:05;16.50;99.90
4739;DHT22;2383;48.632;10.156;2023-08-17T23:32:07;16.60;99.90
4739;DHT22;2383;48.632;10.156;2023-08-17T23:36:29;16.60;99.90
4739;DHT22;2383;48.632;10.156;2023-08-17T23:40:31;16.70;99.90
4739;DHT22;2383;48.632;10.156;2023-08-17T23:44:33;16.70;99.90
4739;DHT22;2383;48.632;10.156;2023-08-17T23:48:35;16.50;99.90
4739;DHT22;2383;48.632;10.156;2023-08-17T23:52:38;16.30;99.90
4739;DHT22;2383;48.632;10.156;2023-08-17T23:56:39;16.40;99.90
